createdAt,value
2023-05-21T00:01:26.256Z,14.50
2023-05-21T00:03:50.101Z,14.50
2023-05-21T00:06:15.681Z,14.50
2023-05-21T00:08:39.028Z,14.40
2023-05-21T00:11:02.530Z,14.40
2023-05-21T00:13:25.886Z,14.50
2023-05-21T00:15:49.193Z,14.40
2023-05-21T00:18:12.569Z,14.40
2023-05-21T00:20:37.450Z,14.40
2023-05-21T00:23:08.289Z,14.50
2023-05-21T00:25:32.300Z,14.50
2023-05-21T00:28:23.541Z,14.50
2023-05-21T00:30:47.321Z,14.50
2023-05-21T00:33:13.888Z,14.50
2023-05-21T00:35:37.460Z,14.40
2023-05-21T00:38:03.095Z,14.30
2023-05-21T00:40:26.721Z,14.20
2023-05-21T00:42:50.136Z,14.20
2023-05-21T00:45:14.824Z,14.20
2023-05-21T00:47:39.255Z,14.10
2023-05-21T00:50:03.711Z,14.10
2023-05-21T00:52:27.568Z,14.10
2023-05-21T00:54:53.078Z,14.10
2023-05-21T00:57:17.649Z,14.10
2023-05-21T00:59:41.428Z,14.10
2023-05-21T01:02:06.802Z,14.10
2023-05-21T01:04:30.490Z,14.10
2023-05-21T01:06:56.203Z,14.10
2023-05-21T01:09:19.830Z,14.00
2023-05-21T01:11:47.904Z,14.00
2023-05-21T01:14:13.412Z,14.00
2023-05-21T01:16:39.303Z,14.00
2023-05-21T01:19:04.264Z,14.00
2023-05-21T01:21:29.401Z,14.00
2023-05-21T01:23:54.182Z,14.00
2023-05-21T01:26:18.469Z,14.00
2023-05-21T01:28:42.918Z,14.00
2023-05-21T01:31:43.847Z,14.00
2023-05-21T01:34:11.810Z,13.90
2023-05-21T01:37:19.146Z,13.90
2023-05-21T01:39:57.049Z,13.90
2023-05-21T01:43:16.439Z,13.80
2023-05-21T01:46:11.096Z,13.80
2023-05-21T01:48:37.812Z,13.80
2023-05-21T01:51:13.917Z,13.70
2023-05-21T01:53:40.648Z,13.70
2023-05-21T01:56:15.977Z,13.70
2023-05-21T01:58:39.675Z,13.70
2023-05-21T02:01:04.681Z,13.70
2023-05-21T02:03:43.355Z,13.70
2023-05-21T02:06:11.082Z,13.70
2023-05-21T02:08:38.563Z,13.60
2023-05-21T02:11:05.928Z,13.60
2023-05-21T02:13:32.390Z,13.60
2023-05-21T02:16:01.596Z,13.70
2023-05-21T02:18:26.393Z,13.60
2023-05-21T02:20:49.751Z,13.60
2023-05-21T02:23:13.208Z,13.60
2023-05-21T02:25:37.005Z,13.50
2023-05-21T02:28:02.516Z,13.50
2023-05-21T02:30:26.212Z,13.50
2023-05-21T02:32:50.707Z,13.50
2023-05-21T02:35:14.957Z,13.50
2023-05-21T02:37:40.397Z,13.50
2023-05-21T02:40:05.987Z,13.50
2023-05-21T02:42:30.041Z,13.40
2023-05-21T02:44:54.929Z,13.40
2023-05-21T02:47:19.721Z,13.30
2023-05-21T02:49:43.095Z,13.30
2023-05-21T02:52:07.189Z,13.30
2023-05-21T02:54:30.478Z,13.30
2023-05-21T02:56:54.200Z,13.30
2023-05-21T02:59:17.546Z,13.30
2023-05-21T03:01:44.952Z,13.30
2023-05-21T03:04:08.471Z,13.20
2023-05-21T03:06:32.222Z,13.20
2023-05-21T03:08:55.773Z,13.20
2023-05-21T03:11:22.500Z,13.20
2023-05-21T03:13:46.395Z,13.20
2023-05-21T03:16:09.897Z,13.20
2023-05-21T03:18:34.677Z,13.20
2023-05-21T03:20:59.002Z,13.10
2023-05-21T03:23:24.939Z,13.10
2023-05-21T03:25:48.619Z,13.10
2023-05-21T03:28:12.497Z,13.10
2023-05-21T03:30:40.305Z,13.00
2023-05-21T03:33:23.990Z,13.00
2023-05-21T03:35:48.689Z,13.00
2023-05-21T03:38:13.071Z,13.10
2023-05-21T03:40:36.367Z,13.10
2023-05-21T03:43:02.581Z,13.10
2023-05-21T03:46:18.532Z,13.10
2023-05-21T03:49:15.875Z,13.10
2023-05-21T03:52:33.143Z,13.10
2023-05-21T03:55:26.617Z,13.10
2023-05-21T03:57:59.303Z,13.10
2023-05-21T04:00:24.585Z,13.10
2023-05-21T04:02:48.116Z,13.10
2023-05-21T04:05:13.525Z,13.10
2023-05-21T04:07:38.992Z,13.10
2023-05-21T04:10:04.106Z,13.10
2023-05-21T04:12:28.828Z,13.10
2023-05-21T04:14:59.047Z,13.10
2023-05-21T04:17:28.532Z,13.10
2023-05-21T04:19:53.389Z,13.20
2023-05-21T04:22:16.975Z,13.10
2023-05-21T04:24:41.667Z,13.20
2023-05-21T04:27:14.117Z,13.20
2023-05-21T04:29:42.591Z,13.20
2023-05-21T04:32:07.367Z,13.30
2023-05-21T04:34:32.841Z,13.30
2023-05-21T04:36:56.923Z,13.20
2023-05-21T04:39:21.623Z,13.30
2023-05-21T04:41:47.158Z,13.30
2023-05-21T04:44:14.974Z,13.30
2023-05-21T04:46:41.796Z,13.30
2023-05-21T04:49:05.358Z,13.30
2023-05-21T04:51:28.676Z,13.30
2023-05-21T04:53:52.048Z,13.30
2023-05-21T04:56:15.716Z,13.30
2023-05-21T04:58:41.625Z,13.30
2023-05-21T05:01:05.068Z,13.30
2023-05-21T05:03:28.520Z,13.40
2023-05-21T05:05:51.876Z,13.40
2023-05-21T05:08:17.120Z,13.50
2023-05-21T05:10:40.435Z,13.50
2023-05-21T05:13:03.805Z,13.50
2023-05-21T05:15:28.642Z,13.50
2023-05-21T05:17:52.146Z,13.50
2023-05-21T05:20:15.720Z,13.60
2023-05-21T05:22:39.134Z,13.50
2023-05-21T05:25:02.442Z,13.60
2023-05-21T05:27:25.808Z,13.60
2023-05-21T05:29:49.875Z,13.60
2023-05-21T05:32:14.887Z,13.60
2023-05-21T05:34:39.333Z,13.70
2023-05-21T05:37:02.912Z,13.80
2023-05-21T05:39:26.335Z,13.80
2023-05-21T05:41:49.682Z,13.90
2023-05-21T05:44:13.410Z,13.90
2023-05-21T05:46:36.999Z,14.00
2023-05-21T05:49:01.869Z,14.00
2023-05-21T05:51:25.146Z,14.00
2023-05-21T05:53:48.448Z,14.00
2023-05-21T05:56:11.845Z,14.00
2023-05-21T05:58:35.535Z,14.10
2023-05-21T06:01:07.833Z,14.10
2023-05-21T06:03:31.602Z,14.20
2023-05-21T06:05:56.595Z,14.20
2023-05-21T06:08:20.782Z,14.30
2023-05-21T06:10:44.284Z,14.30
2023-05-21T06:13:07.919Z,14.30
2023-05-21T06:15:32.072Z,14.30
2023-05-21T06:17:55.687Z,14.40
2023-05-21T06:20:19.687Z,14.50
2023-05-21T06:22:44.514Z,14.50
2023-05-21T06:25:10.649Z,14.60
2023-05-21T06:27:34.586Z,14.60
2023-05-21T06:29:59.065Z,14.70
2023-05-21T06:32:25.894Z,14.80
2023-05-21T06:34:49.607Z,15.00
2023-05-21T06:37:20.142Z,15.20
2023-05-21T06:39:44.942Z,15.40
2023-05-21T06:42:08.252Z,15.40
2023-05-21T06:44:51.870Z,15.30
2023-05-21T06:47:27.306Z,15.30
2023-05-21T06:49:50.881Z,15.50
2023-05-21T06:52:14.270Z,15.50
2023-05-21T06:54:37.647Z,15.70
2023-05-21T06:57:02.854Z,15.80
2023-05-21T06:59:27.819Z,15.70
2023-05-21T07:01:51.179Z,15.90
2023-05-21T07:04:14.789Z,16.00
2023-05-21T07:06:39.951Z,16.00
2023-05-21T07:09:03.747Z,16.00
2023-05-21T07:11:28.983Z,16.10
2023-05-21T07:13:54.794Z,16.00
2023-05-21T07:16:18.931Z,16.10
2023-05-21T07:18:44.559Z,16.30
2023-05-21T07:21:08.031Z,16.40
2023-05-21T07:23:32.756Z,16.50
2023-05-21T07:25:56.162Z,16.50
2023-05-21T07:28:20.399Z,16.80
2023-05-21T07:30:45.180Z,16.80
2023-05-21T07:33:12.672Z,17.00
2023-05-21T07:35:36.540Z,17.50
2023-05-21T07:38:00.148Z,17.40
2023-05-21T07:40:24.202Z,17.50
2023-05-21T07:42:47.540Z,17.40
2023-05-21T07:45:13.893Z,17.60
2023-05-21T07:47:41.954Z,17.50
2023-05-21T07:50:07.619Z,18.10
2023-05-21T07:52:30.981Z,18.00
2023-05-21T07:54:54.580Z,18.00
2023-05-21T07:57:19.603Z,17.70
2023-05-21T07:59:58.522Z,17.90
2023-05-21T08:02:22.326Z,17.90
2023-05-21T08:04:47.264Z,18.00
2023-05-21T08:07:11.062Z,18.40
2023-05-21T08:09:34.375Z,18.30
2023-05-21T08:11:57.761Z,18.20
2023-05-21T08:14:21.480Z,18.00
2023-05-21T08:16:45.440Z,18.10
2023-05-21T08:19:08.841Z,18.00
2023-05-21T08:21:34.112Z,18.10
2023-05-21T08:23:59.955Z,18.00
2023-05-21T08:26:23.682Z,18.30
2023-05-21T08:28:47.532Z,18.50
2023-05-21T08:31:11.210Z,18.50
2023-05-21T08:33:38.392Z,18.60
2023-05-21T08:36:02.561Z,18.30
2023-05-21T08:38:45.212Z,18.10
2023-05-21T08:41:14.009Z,18.10
2023-05-21T08:43:40.033Z,18.10
2023-05-21T08:46:05.392Z,18.30
2023-05-21T08:48:33.361Z,18.50
2023-05-21T08:50:56.743Z,18.70
2023-05-21T08:53:28.783Z,19.30
2023-05-21T08:55:57.274Z,19.50
2023-05-21T08:58:25.778Z,20.00
2023-05-21T09:00:50.718Z,20.10
2023-05-21T09:03:15.956Z,20.10
2023-05-21T09:05:41.774Z,19.80
2023-05-21T09:08:09.087Z,19.70
2023-05-21T09:10:54.226Z,19.80
2023-05-21T09:13:22.337Z,19.50
2023-05-21T09:15:47.698Z,19.70
2023-05-21T09:18:13.519Z,19.70
2023-05-21T09:21:27.284Z,19.60
2023-05-21T09:24:06.097Z,19.50
2023-05-21T09:26:30.974Z,19.50
2023-05-21T09:29:01.536Z,19.40
2023-05-21T09:31:25.898Z,19.20
2023-05-21T09:33:49.689Z,19.00
2023-05-21T09:36:14.369Z,19.30
2023-05-21T09:38:39.442Z,19.40
2023-05-21T09:41:06.748Z,19.50
2023-05-21T09:43:33.029Z,19.40
2023-05-21T09:46:01.290Z,19.80
2023-05-21T09:48:38.479Z,19.60
2023-05-21T09:51:16.553Z,20.10
2023-05-21T09:53:45.901Z,20.40
2023-05-21T09:56:10.234Z,20.80
2023-05-21T09:58:36.145Z,20.90
2023-05-21T10:01:00.727Z,20.50
2023-05-21T10:03:26.758Z,20.10
2023-05-21T10:05:52.624Z,20.20
2023-05-21T10:08:20.011Z,20.50
2023-05-21T10:10:44.472Z,20.40
2023-05-21T10:13:10.559Z,20.50
2023-05-21T10:15:41.454Z,20.20
2023-05-21T10:18:06.257Z,20.50
2023-05-21T10:20:30.396Z,20.90
2023-05-21T10:22:54.492Z,20.80
2023-05-21T10:25:18.719Z,21.30
2023-05-21T10:27:43.201Z,21.20
2023-05-21T10:30:08.675Z,21.00
2023-05-21T10:32:35.047Z,21.10
2023-05-21T10:35:01.460Z,21.00
2023-05-21T10:37:27.548Z,20.50
2023-05-21T10:39:51.595Z,21.00
2023-05-21T10:42:22.876Z,20.80
2023-05-21T10:45:06.546Z,20.40
2023-05-21T10:47:54.711Z,20.40
2023-05-21T10:51:16.799Z,20.80
2023-05-21T10:54:16.894Z,21.40
2023-05-21T10:56:44.109Z,20.70
2023-05-21T10:59:22.987Z,20.40
2023-05-21T11:01:46.755Z,20.50
2023-05-21T11:04:14.517Z,20.60
2023-05-21T11:06:37.911Z,20.60
2023-05-21T11:09:04.886Z,20.10
2023-05-21T11:11:46.056Z,20.50
2023-05-21T11:14:43.544Z,20.90
2023-05-21T11:17:13.681Z,20.80
2023-05-21T11:19:41.068Z,20.90
2023-05-21T11:22:11.787Z,21.00
2023-05-21T11:24:38.591Z,21.10
2023-05-21T11:27:04.949Z,21.10
2023-05-21T11:29:44.703Z,21.60
2023-05-21T11:32:10.372Z,21.80
2023-05-21T11:34:41.806Z,21.80
2023-05-21T11:37:26.704Z,21.20
2023-05-21T11:39:51.113Z,20.80
2023-05-21T11:42:15.305Z,21.10
2023-05-21T11:44:42.278Z,21.70
2023-05-21T11:47:06.814Z,21.60
2023-05-21T11:49:30.276Z,21.30
2023-05-21T11:51:55.130Z,21.80
2023-05-21T11:54:19.186Z,22.40
2023-05-21T11:56:42.558Z,22.30
2023-05-21T11:59:05.801Z,22.10
2023-05-21T12:01:31.205Z,22.10
2023-05-21T12:03:54.627Z,21.60
2023-05-21T12:06:18.522Z,21.90
2023-05-21T12:08:43.384Z,22.20
2023-05-21T12:11:06.995Z,22.20
2023-05-21T12:13:30.298Z,23.30
2023-05-21T12:15:54.461Z,23.20
2023-05-21T12:18:17.792Z,23.00
2023-05-21T12:20:41.148Z,23.00
2023-05-21T12:23:04.530Z,23.00
2023-05-21T12:25:30.384Z,23.30
2023-05-21T12:27:58.321Z,23.10
2023-05-21T12:30:22.285Z,23.30
2023-05-21T12:32:45.649Z,23.20
2023-05-21T12:35:09.802Z,23.30
2023-05-21T12:37:35.492Z,22.80
2023-05-21T12:40:01.345Z,23.20
2023-05-21T12:42:31.123Z,23.50
2023-05-21T12:46:17.355Z,23.70
2023-05-21T12:48:40.959Z,23.10
2023-05-21T12:51:04.520Z,23.20
2023-05-21T12:53:38.927Z,23.40
2023-05-21T12:56:10.732Z,23.30
2023-05-21T12:58:35.266Z,23.80
2023-05-21T13:00:58.575Z,24.00
2023-05-21T13:03:25.070Z,24.00
2023-05-21T13:05:48.428Z,23.80
2023-05-21T13:08:14.085Z,23.60
2023-05-21T13:10:37.611Z,23.80
2023-05-21T13:13:01.716Z,23.70
2023-05-21T13:15:25.148Z,23.80
2023-05-21T13:17:50.156Z,24.00
2023-05-21T13:20:18.359Z,24.00
2023-05-21T13:22:43.426Z,24.00
2023-05-21T13:25:09.677Z,24.00
2023-05-21T13:27:33.079Z,23.90
2023-05-21T13:29:56.446Z,23.90
2023-05-21T13:32:19.868Z,24.20
2023-05-21T13:34:43.352Z,24.10
2023-05-21T13:37:08.334Z,24.60
2023-05-21T13:39:31.733Z,24.50
2023-05-21T13:41:55.356Z,24.10
2023-05-21T13:44:18.695Z,24.10
2023-05-21T13:46:42.273Z,24.20
2023-05-21T13:49:05.627Z,24.50
2023-05-21T13:51:38.561Z,24.50
2023-05-21T13:54:04.178Z,24.60
2023-05-21T13:56:27.511Z,24.80
2023-05-21T13:58:50.916Z,24.80
2023-05-21T14:01:14.272Z,24.70
2023-05-21T14:03:37.534Z,24.60
2023-05-21T14:06:01.071Z,24.70
2023-05-21T14:08:27.476Z,24.80
2023-05-21T14:10:52.377Z,24.80
2023-05-21T14:13:20.005Z,24.80
2023-05-21T14:15:44.223Z,24.90
2023-05-21T14:18:12.072Z,25.00
2023-05-21T14:20:35.488Z,25.00
2023-05-21T14:22:58.733Z,24.60
2023-05-21T14:25:22.155Z,24.70
2023-05-21T14:27:46.894Z,24.80
2023-05-21T14:30:11.551Z,25.10
2023-05-21T14:32:35.277Z,25.30
2023-05-21T14:35:00.493Z,25.40
2023-05-21T14:37:23.836Z,25.40
2023-05-21T14:39:47.120Z,25.10
2023-05-21T14:42:10.426Z,25.10
2023-05-21T14:44:35.051Z,25.30
2023-05-21T14:46:59.077Z,25.50
2023-05-21T14:49:22.433Z,25.40
2023-05-21T14:51:47.478Z,25.50
2023-05-21T14:54:10.840Z,25.80
2023-05-21T14:56:34.662Z,25.70
2023-05-21T14:58:58.039Z,25.30
2023-05-21T15:01:23.372Z,25.20
2023-05-21T15:03:46.773Z,25.20
2023-05-21T15:06:10.548Z,25.10
2023-05-21T15:08:33.897Z,25.30
2023-05-21T15:10:58.149Z,25.20
2023-05-21T15:13:21.693Z,25.40
2023-05-21T15:15:45.006Z,25.00
2023-05-21T15:18:09.775Z,25.00
2023-05-21T15:20:33.118Z,25.30
2023-05-21T15:23:08.783Z,25.10
2023-05-21T15:25:39.229Z,25.50
2023-05-21T15:28:02.741Z,25.10
2023-05-21T15:30:27.298Z,25.20
2023-05-21T15:32:50.619Z,25.50
2023-05-21T15:35:15.503Z,25.60
2023-05-21T15:37:38.848Z,25.90
2023-05-21T15:40:02.331Z,25.60
2023-05-21T15:42:25.640Z,25.50
2023-05-21T15:44:48.958Z,25.40
2023-05-21T15:47:12.181Z,25.10
2023-05-21T15:49:35.901Z,25.10
2023-05-21T15:52:00.840Z,25.00
2023-05-21T15:54:24.189Z,24.70
2023-05-21T15:56:47.471Z,24.60
2023-05-21T15:59:11.066Z,24.50
2023-05-21T16:01:34.600Z,24.20
2023-05-21T16:03:58.054Z,24.40
2023-05-21T16:06:21.417Z,24.30
2023-05-21T16:08:46.064Z,24.10
2023-05-21T16:11:09.355Z,24.10
2023-05-21T16:13:32.598Z,24.20
2023-05-21T16:15:55.942Z,24.00
2023-05-21T16:18:19.383Z,24.10
2023-05-21T16:20:42.595Z,24.20
2023-05-21T16:23:06.477Z,23.90
2023-05-21T16:25:31.183Z,24.00
2023-05-21T16:27:54.441Z,24.20
2023-05-21T16:30:17.884Z,24.20
2023-05-21T16:32:41.385Z,24.20
2023-05-21T16:35:06.039Z,24.20
2023-05-21T16:37:29.342Z,24.10
2023-05-21T16:39:52.710Z,24.10
2023-05-21T16:42:17.381Z,24.30
2023-05-21T16:44:40.832Z,24.20
2023-05-21T16:47:04.369Z,24.10
2023-05-21T16:49:28.911Z,24.00
2023-05-21T16:51:52.243Z,24.10
2023-05-21T16:54:15.574Z,24.10
2023-05-21T16:56:39.319Z,24.10
2023-05-21T16:59:03.964Z,24.10
2023-05-21T17:01:27.556Z,24.00
2023-05-21T17:03:51.260Z,24.00
2023-05-21T17:06:15.054Z,24.00
2023-05-21T17:08:38.342Z,24.00
2023-05-21T17:11:01.691Z,24.00
2023-05-21T17:13:25.024Z,23.80
2023-05-21T17:15:49.840Z,23.80
2023-05-21T17:18:13.154Z,23.80
2023-05-21T17:20:36.603Z,23.80
2023-05-21T17:22:59.897Z,23.80
2023-05-21T17:25:25.124Z,23.80
2023-05-21T17:27:48.575Z,23.80
2023-05-21T17:30:13.160Z,23.80
2023-05-21T17:32:37.933Z,23.70
2023-05-21T17:35:01.320Z,23.60
2023-05-21T17:37:24.635Z,23.70
2023-05-21T17:39:48.023Z,23.70
2023-05-21T17:42:11.373Z,23.60
2023-05-21T17:44:34.668Z,23.70
2023-05-21T17:46:58.046Z,23.60
2023-05-21T17:49:22.723Z,23.50
2023-05-21T17:51:46.495Z,23.60
2023-05-21T17:54:09.847Z,23.60
2023-05-21T17:56:34.327Z,23.50
2023-05-21T17:58:57.588Z,23.40
2023-05-21T18:01:22.088Z,23.30
2023-05-21T18:03:45.499Z,23.50
2023-05-21T18:06:10.184Z,23.40
2023-05-21T18:08:33.539Z,23.30
2023-05-21T18:10:57.924Z,23.30
2023-05-21T18:13:21.257Z,23.20
2023-05-21T18:15:44.588Z,23.20
2023-05-21T18:18:07.904Z,23.10
2023-05-21T18:20:31.309Z,23.20
2023-05-21T18:22:56.005Z,23.10
2023-05-21T18:25:19.324Z,23.20
2023-05-21T18:27:42.608Z,23.00
2023-05-21T18:30:08.142Z,23.00
2023-05-21T18:32:32.650Z,23.00
2023-05-21T18:34:56.547Z,22.90
2023-05-21T18:37:20.083Z,22.80
2023-05-21T18:39:44.728Z,22.80
2023-05-21T18:42:13.406Z,22.70
2023-05-21T18:44:37.504Z,22.70
2023-05-21T18:47:01.731Z,22.60
2023-05-21T18:49:25.175Z,22.50
2023-05-21T18:51:48.500Z,22.50
2023-05-21T18:54:11.745Z,22.50
2023-05-21T18:56:36.768Z,22.40
2023-05-21T18:59:00.109Z,22.40
2023-05-21T19:01:23.502Z,22.50
2023-05-21T19:03:46.871Z,22.30
2023-05-21T19:06:10.186Z,22.20
2023-05-21T19:08:33.505Z,22.20
2023-05-21T19:10:57.390Z,22.20
2023-05-21T19:13:22.115Z,22.00
2023-05-21T19:15:48.007Z,21.50
2023-05-21T19:18:11.315Z,20.80
2023-05-21T19:20:34.684Z,20.70
2023-05-21T19:22:58.179Z,20.50
2023-05-21T19:25:21.708Z,20.00
2023-05-21T19:27:58.524Z,20.00
2023-05-21T19:30:23.280Z,20.00
2023-05-21T19:32:47.958Z,19.90
2023-05-21T19:35:11.505Z,19.70
2023-05-21T19:37:34.830Z,19.70
2023-05-21T19:39:58.300Z,19.60
2023-05-21T19:42:22.117Z,19.80
2023-05-21T19:44:45.558Z,19.50
2023-05-21T19:47:10.566Z,19.50
2023-05-21T19:49:33.976Z,19.50
2023-05-21T19:51:57.300Z,19.70
2023-05-21T19:54:21.044Z,19.50
2023-05-21T19:56:44.354Z,19.50
2023-05-21T19:59:07.794Z,19.20
2023-05-21T20:01:33.278Z,18.70
2023-05-21T20:03:58.635Z,18.60
2023-05-21T20:06:22.068Z,18.60
2023-05-21T20:08:48.876Z,18.60
2023-05-21T20:11:12.873Z,18.50
2023-05-21T20:13:36.284Z,18.50
2023-05-21T20:16:07.544Z,18.60
2023-05-21T20:18:31.111Z,18.70
2023-05-21T20:21:00.368Z,18.60
2023-05-21T20:23:31.298Z,18.70
2023-05-21T20:25:54.653Z,18.80
2023-05-21T20:29:10.563Z,18.80
2023-05-21T20:31:33.980Z,18.70
2023-05-21T20:33:58.731Z,18.70
2023-05-21T20:36:27.186Z,18.60
2023-05-21T20:38:57.187Z,18.70
2023-05-21T20:41:21.799Z,18.70
2023-05-21T20:44:25.869Z,18.60
2023-05-21T20:46:52.858Z,18.50
2023-05-21T20:49:17.750Z,18.60
2023-05-21T20:51:42.481Z,18.50
2023-05-21T20:54:06.414Z,18.50
2023-05-21T20:56:41.525Z,18.50
2023-05-21T20:59:11.955Z,18.50
2023-05-21T21:01:37.938Z,18.50
2023-05-21T21:04:01.520Z,18.50
2023-05-21T21:06:31.674Z,18.50
2023-05-21T21:08:57.009Z,18.50
2023-05-21T21:11:20.329Z,18.40
2023-05-21T21:13:43.895Z,18.40
2023-05-21T21:16:09.747Z,18.40
2023-05-21T21:18:33.289Z,18.40
2023-05-21T21:20:56.765Z,18.40
2023-05-21T21:23:20.011Z,18.40
2023-05-21T21:25:45.049Z,18.40
2023-05-21T21:28:08.550Z,18.40
2023-05-21T21:30:32.249Z,18.40
2023-05-21T21:32:55.779Z,18.40
2023-05-21T21:35:19.369Z,18.40
2023-05-21T21:37:42.778Z,18.40
2023-05-21T21:40:08.246Z,18.30
2023-05-21T21:42:33.286Z,18.30
2023-05-21T21:44:56.594Z,18.30
2023-05-21T21:47:19.947Z,18.30
2023-05-21T21:49:43.602Z,18.20
2023-05-21T21:52:08.124Z,18.20
2023-05-21T21:54:31.401Z,18.20
2023-05-21T21:56:55.018Z,18.20
2023-05-21T21:59:22.598Z,18.10
2023-05-21T22:01:46.073Z,18.10
2023-05-21T22:04:09.473Z,18.00
2023-05-21T22:06:33.201Z,18.10
2023-05-21T22:08:56.548Z,18.00
2023-05-21T22:11:19.956Z,18.00
2023-05-21T22:13:44.238Z,18.00
2023-05-21T22:16:09.100Z,17.90
2023-05-21T22:18:41.090Z,17.80
2023-05-21T22:21:09.559Z,17.80
2023-05-21T22:23:33.610Z,17.80
2023-05-21T22:25:56.918Z,17.80
2023-05-21T22:28:22.383Z,17.80
2023-05-21T22:30:45.740Z,17.70
2023-05-21T22:33:11.355Z,17.80
2023-05-21T22:35:34.703Z,17.80
2023-05-21T22:37:58.716Z,17.80
2023-05-21T22:40:21.980Z,17.70
2023-05-21T22:42:47.047Z,17.80
2023-05-21T22:45:19.360Z,17.60
2023-05-21T22:47:43.012Z,17.60
2023-05-21T22:50:59.098Z,17.50
2023-05-21T22:53:50.673Z,17.50
2023-05-21T22:56:30.430Z,17.50
2023-05-21T22:59:00.228Z,17.50
2023-05-21T23:02:16.471Z,17.40
2023-05-21T23:05:11.170Z,17.40
2023-05-21T23:08:27.047Z,17.40
2023-05-21T23:11:43.312Z,17.40
2023-05-21T23:14:06.864Z,17.40
2023-05-21T23:16:32.289Z,17.50
2023-05-21T23:19:52.311Z,17.50
2023-05-21T23:22:57.617Z,17.50
2023-05-21T23:25:23.566Z,17.50
2023-05-21T23:27:52.906Z,17.40
2023-05-21T23:30:16.915Z,17.50
2023-05-21T23:32:41.332Z,17.40
2023-05-21T23:35:09.329Z,17.40
2023-05-21T23:37:34.201Z,17.40
2023-05-21T23:39:57.470Z,17.40
2023-05-21T23:42:21.670Z,17.40
2023-05-21T23:44:45.112Z,17.40
2023-05-21T23:47:12.363Z,17.40
2023-05-21T23:49:37.176Z,17.40
2023-05-21T23:52:01.525Z,17.30
2023-05-21T23:54:27.463Z,17.30
2023-05-21T23:56:55.020Z,17.30
2023-05-21T23:59:18.708Z,17.30
